Aérodrome :
LOGIN :

S'inscrire | Disclaimer

   EN    FR    IT 

 










Légende :    VFR   VFR Marginal   IFR   IFR Intensif   IFR Très Intensif
Visi : 
Plafond : 
>= 8 km
>= 3000ft
5 à 8 km
1000 à 3000 ft
1500m à 5 km
500 à 1000 ft
800 à 1500m
200 à 500 ft
< 800m
< 200 ft
Symboles :   Orages  Brouillard  Fortes neiges  Fortes précipitations  Vent > 20 kt
SIGMETs :   Divers  Orages  Givrage  Turbulence  Onde Orograph.  Cendres Volcan.






- Altitude de l'aérodrome : 75 ft
- Code IATA : YEO


EGDY - RNAS Yeovilton

DERNIER METAR :
  • 142120Z 36008KT 9999 SCT008 OVC018 04/03 Q1003 NOSIG RMK GRN GRN

METARs EXPIRÉS :
  • 142050Z 36010KT 9999 SCT012 BKN020 04/03 Q1002
  • 142020Z 36011KT 9999 FEW010 SCT020 BKN040 05/03 Q1002 NOSIG RMK WHT WHT
  • 141950Z 36010KT 9999 SCT020 SCT040 04/03 Q1001 NOSIG RMK WHT WHT
  • 141921Z 36011KT 9999 SCT020 BKN040 05/03 Q1001 NOSIG RMK WHT WHT
  • 141850Z 35010KT 9999 FEW010 SCT018 BKN025 05/03 Q1001 NOSIG RMK WHT WHT

TAF TAF EGDY
Valide du 14 à 18h jusqu'au 15 à 03h UTC


141626Z 1418/1503 01010KT 9999 NSW FEW006 SCT010 BKN015
PROB30
TEMPO 1418/1424 8000 -RA SCT006



MET'MAP, la Météo Aéronautique d'un coup d'oeil ! - Copyright ORBIFLY Décembre 2007 - Disclaimer

ORBIFLY MET'MAP TEAM :

Programmation & Développement : Alexandra Zaïnal
Conception & Développement : Baudouin d'Aumeries
Co-Programmation & Développement : Marc-Olivier Méhu
Soutien technique & logistique : Manuel Goepfert

Contact : metmap@orbifly.com




SOURCES & CREDITS :

   NOAA